sensor_id;sensor_type;location;lat;lon;timestamp;pressure;altitude;pressure_sealevel;temperature
71960;BMP280;59832;51.146;14.024;2022-12-24T00:00:02;97070.72;;;8.09
71960;BMP280;59832;51.146;14.024;2022-12-24T00:02:29;97065.66;;;8.09
71960;BMP280;59832;51.146;14.024;2022-12-24T00:04:55;97068.28;;;8.16
71960;BMP280;59832;51.146;14.024;2022-12-24T00:07:27;97067.59;;;8.23
71960;BMP280;59832;51.146;14.024;2022-12-24T00:09:53;97062.91;;;8.25
71960;BMP280;59832;51.146;14.024;2022-12-24T00:12:20;97068.75;;;8.29
71960;BMP280;59832;51.146;14.024;2022-12-24T00:14:47;97078.50;;;8.31
71960;BMP280;59832;51.146;14.024;2022-12-24T00:17:13;97068.81;;;8.36
71960;BMP280;59832;51.146;14.024;2022-12-24T00:19:40;97077.53;;;8.42
71960;BMP280;59832;51.146;14.024;2022-12-24T00:22:08;97076.84;;;8.45
71960;BMP280;59832;51.146;14.024;2022-12-24T00:24:35;97084.09;;;8.47
71960;BMP280;59832;51.146;14.024;2022-12-24T00:27:01;97081.22;;;8.52
71960;BMP280;59832;51.146;14.024;2022-12-24T00:29:28;97077.63;;;8.56
71960;BMP280;59832;51.146;14.024;2022-12-24T00:31:55;97092.19;;;8.63
71960;BMP280;59832;51.146;14.024;2022-12-24T00:34:22;97088.56;;;8.64
71960;BMP280;59832;51.146;14.024;2022-12-24T00:36:49;97097.28;;;8.67
71960;BMP280;59832;51.146;14.024;2022-12-24T00:39:16;97095.16;;;8.72
71960;BMP280;59832;51.146;14.024;2022-12-24T00:41:42;97091.88;;;8.72
71960;BMP280;59832;51.146;14.024;2022-12-24T00:44:09;97096.28;;;8.78
71960;BMP280;59832;51.146;14.024;2022-12-24T00:46:39;97091.56;;;8.77
71960;BMP280;59832;51.146;14.024;2022-12-24T00:49:06;97099.84;;;8.70
71960;BMP280;59832;51.146;14.024;2022-12-24T00:51:34;97108.13;;;8.64
71960;BMP280;59832;51.146;14.024;2022-12-24T00:54:01;97112.47;;;8.63
71960;BMP280;59832;51.146;14.024;2022-12-24T00:56:27;97109.94;;;8.59
71960;BMP280;59832;51.146;14.024;2022-12-24T00:58:54;97112.81;;;8.58
71960;BMP280;59832;51.146;14.024;2022-12-24T01:01:21;97129.09;;;8.60
71960;BMP280;59832;51.146;14.024;2022-12-24T01:03:48;97127.28;;;8.57
71960;BMP280;59832;51.146;14.024;2022-12-24T01:06:20;97130.56;;;8.58
71960;BMP280;59832;51.146;14.024;2022-12-24T01:08:50;97144.69;;;8.59
71960;BMP280;59832;51.146;14.024;2022-12-24T01:11:17;97143.53;;;8.49
71960;BMP280;59832;51.146;14.024;2022-12-24T01:13:44;97148.97;;;8.51
71960;BMP280;59832;51.146;14.024;2022-12-24T01:16:19;97149.34;;;8.53
71960;BMP280;59832;51.146;14.024;2022-12-24T01:18:46;97147.16;;;8.52
71960;BMP280;59832;51.146;14.024;2022-12-24T01:21:13;97150.09;;;8.54
71960;BMP280;59832;51.146;14.024;2022-12-24T01:23:40;97155.50;;;8.56
71960;BMP280;59832;51.146;14.024;2022-12-24T01:26:06;97156.63;;;8.55
71960;BMP280;59832;51.146;14.024;2022-12-24T01:28:33;97162.06;;;8.57
71960;BMP280;59832;51.146;14.024;2022-12-24T01:30:59;97158.13;;;8.63
71960;BMP280;59832;51.146;14.024;2022-12-24T01:33:29;97165.00;;;8.63
71960;BMP280;59832;51.146;14.024;2022-12-24T01:35:55;97172.53;;;8.55
71960;BMP280;59832;51.146;14.024;2022-12-24T01:38:22;97171.53;;;8.64
71960;BMP280;59832;51.146;14.024;2022-12-24T01:40:48;97166.03;;;8.54
71960;BMP280;59832;51.146;14.024;2022-12-24T01:43:33;97171.91;;;8.66
71960;BMP280;59832;51.146;14.024;2022-12-24T01:46:02;97163.28;;;8.74
71960;BMP280;59832;51.146;14.024;2022-12-24T01:48:44;97177.31;;;8.64
71960;BMP280;59832;51.146;14.024;2022-12-24T01:53:44;97182.88;;;8.77
71960;BMP280;59832;51.146;14.024;2022-12-24T01:56:12;97182.91;;;8.80
71960;BMP280;59832;51.146;14.024;2022-12-24T01:58:39;97192.59;;;8.68
71960;BMP280;59832;51.146;14.024;2022-12-24T02:01:08;97198.03;;;8.73
71960;BMP280;59832;51.146;14.024;2022-12-24T02:03:34;97203.91;;;8.77
71960;BMP280;59832;51.146;14.024;2022-12-24T02:06:01;97207.84;;;8.71
71960;BMP280;59832;51.146;14.024;2022-12-24T02:08:28;97202.09;;;8.78
71960;BMP280;59832;51.146;14.024;2022-12-24T02:11:17;97208.25;;;8.77
71960;BMP280;59832;51.146;14.024;2022-12-24T02:13:47;97210.72;;;8.73
71960;BMP280;59832;51.146;14.024;2022-12-24T02:22:17;97218.34;;;8.70
71960;BMP280;59832;51.146;14.024;2022-12-24T02:25:01;97208.88;;;8.67
71960;BMP280;59832;51.146;14.024;2022-12-24T02:27:36;97220.50;;;8.71
71960;BMP280;59832;51.146;14.024;2022-12-24T02:35:30;97236.09;;;8.70
71960;BMP280;59832;51.146;14.024;2022-12-24T02:38:03;97236.44;;;8.68
71960;BMP280;59832;51.146;14.024;2022-12-24T02:40:41;97233.19;;;8.71
71960;BMP280;59832;51.146;14.024;2022-12-24T02:43:15;97246.25;;;8.70
71960;BMP280;59832;51.146;14.024;2022-12-24T02:45:45;97235.25;;;8.58
71960;BMP280;59832;51.146;14.024;2022-12-24T02:48:19;97242.91;;;8.66
71960;BMP280;59832;51.146;14.024;2022-12-24T02:51:04;97249.78;;;8.65
71960;BMP280;59832;51.146;14.024;2022-12-24T02:53:32;97249.78;;;8.65
71960;BMP280;59832;51.146;14.024;2022-12-24T02:56:04;97262.25;;;8.77
71960;BMP280;59832;51.146;14.024;2022-12-24T02:58:47;97264.41;;;8.75
71960;BMP280;59832;51.146;14.024;2022-12-24T03:07:06;97261.81;;;8.68
71960;BMP280;59832;51.146;14.024;2022-12-24T03:09:47;97272.63;;;8.65
71960;BMP280;59832;51.146;14.024;2022-12-24T03:12:22;97275.88;;;8.62
71960;BMP280;59832;51.146;14.024;2022-12-24T03:14:50;97277.06;;;8.75
71960;BMP280;59832;51.146;14.024;2022-12-24T03:17:16;97280.97;;;8.66
71960;BMP280;59832;51.146;14.024;2022-12-24T03:19:43;97283.81;;;8.60
71960;BMP280;59832;51.146;14.024;2022-12-24T03:22:11;97291.91;;;8.73
71960;BMP280;59832;51.146;14.024;2022-12-24T03:24:38;97287.19;;;8.72
71960;BMP280;59832;51.146;14.024;2022-12-24T03:27:05;97294.78;;;8.68
71960;BMP280;59832;51.146;14.024;2022-12-24T03:29:34;97290.34;;;8.61
71960;BMP280;59832;51.146;14.024;2022-12-24T03:32:02;97290.44;;;8.69
71960;BMP280;59832;51.146;14.024;2022-12-24T03:34:30;97287.47;;;8.63
71960;BMP280;59832;51.146;14.024;2022-12-24T03:36:56;97294.31;;;8.59
71960;BMP280;59832;51.146;14.024;2022-12-24T03:39:23;97298.34;;;8.64
71960;BMP280;59832;51.146;14.024;2022-12-24T03:41:49;97305.97;;;8.64
71960;BMP280;59832;51.146;14.024;2022-12-24T03:44:15;97316.41;;;8.58
71960;BMP280;59832;51.146;14.024;2022-12-24T03:46:42;97313.09;;;8.54
71960;BMP280;59832;51.146;14.024;2022-12-24T03:49:08;97314.91;;;8.54
71960;BMP280;59832;51.146;14.024;2022-12-24T03:51:35;97322.47;;;8.50
71960;BMP280;59832;51.146;14.024;2022-12-24T03:54:01;97328.19;;;8.44
71960;BMP280;59832;51.146;14.024;2022-12-24T03:56:28;97321.66;;;8.43
71960;BMP280;59832;51.146;14.024;2022-12-24T03:58:54;97319.19;;;8.46
71960;BMP280;59832;51.146;14.024;2022-12-24T04:01:21;97339.34;;;8.36
71960;BMP280;59832;51.146;14.024;2022-12-24T04:03:47;97327.38;;;8.36
71960;BMP280;59832;51.146;14.024;2022-12-24T04:06:15;97333.19;;;8.37
71960;BMP280;59832;51.146;14.024;2022-12-24T04:08:43;97332.78;;;8.35
71960;BMP280;59832;51.146;14.024;2022-12-24T04:11:13;97334.19;;;8.32
71960;BMP280;59832;51.146;14.024;2022-12-24T04:13:40;97334.25;;;8.36
71960;BMP280;59832;51.146;14.024;2022-12-24T04:16:09;97340.81;;;8.40
71960;BMP280;59832;51.146;14.024;2022-12-24T04:18:36;97342.88;;;8.31
71960;BMP280;59832;51.146;14.024;2022-12-24T04:21:03;97354.53;;;8.36
71960;BMP280;59832;51.146;14.024;2022-12-24T04:23:31;97349.06;;;8.34
71960;BMP280;59832;51.146;14.024;2022-12-24T04:25:59;97357.06;;;8.36
71960;BMP280;59832;51.146;14.024;2022-12-24T04:28:28;97346.69;;;8.44
71960;BMP280;59832;51.146;14.024;2022-12-24T04:30:59;97357.47;;;8.41
71960;BMP280;59832;51.146;14.024;2022-12-24T04:33:26;97347.06;;;8.46
71960;BMP280;59832;51.146;14.024;2022-12-24T04:35:52;97353.88;;;8.42
71960;BMP280;59832;51.146;14.024;2022-12-24T04:38:19;97366.69;;;8.53
71960;BMP280;59832;51.146;14.024;2022-12-24T04:40:45;97357.28;;;8.53
71960;BMP280;59832;51.146;14.024;2022-12-24T04:43:12;97367.03;;;8.51
71960;BMP280;59832;51.146;14.024;2022-12-24T04:45:39;97373.97;;;8.54
71960;BMP280;59832;51.146;14.024;2022-12-24T04:48:05;97375.41;;;8.55
71960;BMP280;59832;51.146;14.024;2022-12-24T04:50:32;97373.59;;;8.56
71960;BMP280;59832;51.146;14.024;2022-12-24T04:52:58;97381.00;;;8.68
71960;BMP280;59832;51.146;14.024;2022-12-24T04:55:24;97368.91;;;8.54
71960;BMP280;59832;51.146;14.024;2022-12-24T04:57:51;97373.72;;;8.63
71960;BMP280;59832;51.146;14.024;2022-12-24T05:00:18;97371.13;;;8.59
71960;BMP280;59832;51.146;14.024;2022-12-24T05:02:45;97376.97;;;8.64
71960;BMP280;59832;51.146;14.024;2022-12-24T05:05:12;97395.19;;;8.73
71960;BMP280;59832;51.146;14.024;2022-12-24T05:07:39;97395.91;;;8.73
71960;BMP280;59832;51.146;14.024;2022-12-24T05:10:06;97403.59;;;8.77
71960;BMP280;59832;51.146;14.024;2022-12-24T05:12:34;97404.66;;;8.76
71960;BMP280;59832;51.146;14.024;2022-12-24T05:15:00;97406.38;;;8.68
71960;BMP280;59832;51.146;14.024;2022-12-24T05:17:27;97396.97;;;8.69
71960;BMP280;59832;51.146;14.024;2022-12-24T05:19:53;97407.84;;;8.73
71960;BMP280;59832;51.146;14.024;2022-12-24T05:22:20;97409.72;;;8.76
71960;BMP280;59832;51.146;14.024;2022-12-24T05:25:05;97415.06;;;8.67
71960;BMP280;59832;51.146;14.024;2022-12-24T05:27:50;97415.19;;;8.78
71960;BMP280;59832;51.146;14.024;2022-12-24T05:30:18;97411.53;;;8.75
71960;BMP280;59832;51.146;14.024;2022-12-24T05:32:44;97427.16;;;8.77
71960;BMP280;59832;51.146;14.024;2022-12-24T05:35:11;97423.88;;;8.77
71960;BMP280;59832;51.146;14.024;2022-12-24T05:37:37;97430.41;;;8.78
71960;BMP280;59832;51.146;14.024;2022-12-24T05:40:04;97428.56;;;8.75
71960;BMP280;59832;51.146;14.024;2022-12-24T05:42:31;97427.03;;;8.70
71960;BMP280;59832;51.146;14.024;2022-12-24T05:44:57;97440.13;;;8.72
71960;BMP280;59832;51.146;14.024;2022-12-24T05:47:24;97443.00;;;8.71
71960;BMP280;59832;51.146;14.024;2022-12-24T05:49:50;97450.56;;;8.67
71960;BMP280;59832;51.146;14.024;2022-12-24T05:52:16;97456.56;;;8.55
71960;BMP280;59832;51.146;14.024;2022-12-24T05:54:43;97466.94;;;8.47
71960;BMP280;59832;51.146;14.024;2022-12-24T05:57:09;97466.91;;;8.43
71960;BMP280;59832;51.146;14.024;2022-12-24T05:59:36;97469.75;;;8.38
71960;BMP280;59832;51.146;14.024;2022-12-24T06:02:02;97469.44;;;8.43
71960;BMP280;59832;51.146;14.024;2022-12-24T06:04:29;97476.81;;;8.52
71960;BMP280;59832;51.146;14.024;2022-12-24T06:06:55;97483.25;;;8.46
71960;BMP280;59832;51.146;14.024;2022-12-24T06:09:22;97486.78;;;8.41
71960;BMP280;59832;51.146;14.024;2022-12-24T06:11:48;97486.13;;;8.44
71960;BMP280;59832;51.146;14.024;2022-12-24T06:14:15;97493.41;;;8.46
71960;BMP280;59832;51.146;14.024;2022-12-24T06:16:41;97493.81;;;8.51
71960;BMP280;59832;51.146;14.024;2022-12-24T06:19:08;97499.25;;;8.50
71960;BMP280;59832;51.146;14.024;2022-12-24T06:21:34;97522.09;;;8.50
71960;BMP280;59832;51.146;14.024;2022-12-24T06:24:00;97509.13;;;8.55
71960;BMP280;59832;51.146;14.024;2022-12-24T06:26:27;97534.13;;;8.56
71960;BMP280;59832;51.146;14.024;2022-12-24T06:28:53;97521.84;;;8.58
71960;BMP280;59832;51.146;14.024;2022-12-24T06:31:21;97523.94;;;8.53
71960;BMP280;59832;51.146;14.024;2022-12-24T06:33:49;97532.59;;;8.52
71960;BMP280;59832;51.146;14.024;2022-12-24T06:36:18;97534.41;;;8.51
71960;BMP280;59832;51.146;14.024;2022-12-24T06:38:46;97540.63;;;8.54
71960;BMP280;59832;51.146;14.024;2022-12-24T06:41:13;97553.22;;;8.50
71960;BMP280;59832;51.146;14.024;2022-12-24T06:43:47;97547.50;;;8.53
71960;BMP280;59832;51.146;14.024;2022-12-24T06:46:15;97554.75;;;8.55
71960;BMP280;59832;51.146;14.024;2022-12-24T06:48:42;97563.81;;;8.56
71960;BMP280;59832;51.146;14.024;2022-12-24T06:51:11;97564.09;;;8.51
71960;BMP280;59832;51.146;14.024;2022-12-24T06:53:37;97569.25;;;8.54
71960;BMP280;59832;51.146;14.024;2022-12-24T06:56:06;97569.16;;;8.51
71960;BMP280;59832;51.146;14.024;2022-12-24T06:58:33;97580.84;;;8.55
71960;BMP280;59832;51.146;14.024;2022-12-24T07:01:01;97579.88;;;8.64
71960;BMP280;59832;51.146;14.024;2022-12-24T07:03:28;97578.38;;;8.59
71960;BMP280;59832;51.146;14.024;2022-12-24T07:05:55;97590.28;;;8.55
71960;BMP280;59832;51.146;14.024;2022-12-24T07:08:21;97598.59;;;8.55
71960;BMP280;59832;51.146;14.024;2022-12-24T07:10:51;97600.06;;;8.56
71960;BMP280;59832;51.146;14.024;2022-12-24T07:13:20;97605.50;;;8.55
71960;BMP280;59832;51.146;14.024;2022-12-24T07:15:46;97612.75;;;8.56
71960;BMP280;59832;51.146;14.024;2022-12-24T07:18:21;97605.88;;;8.57
71960;BMP280;59832;51.146;14.024;2022-12-24T07:20:48;97608.41;;;8.57
71960;BMP280;59832;51.146;14.024;2022-12-24T07:23:14;97616.69;;;8.54
71960;BMP280;59832;51.146;14.024;2022-12-24T07:25:41;97620.31;;;8.53
71960;BMP280;59832;51.146;14.024;2022-12-24T07:28:08;97626.25;;;8.64
71960;BMP280;59832;51.146;14.024;2022-12-24T07:30:34;97622.66;;;8.65
71960;BMP280;59832;51.146;14.024;2022-12-24T07:33:01;97630.00;;;8.70
71960;BMP280;59832;51.146;14.024;2022-12-24T07:35:27;97629.94;;;8.67
71960;BMP280;59832;51.146;14.024;2022-12-24T07:37:54;97635.00;;;8.67
71960;BMP280;59832;51.146;14.024;2022-12-24T07:40:20;97631.06;;;8.69
71960;BMP280;59832;51.146;14.024;2022-12-24T07:42:47;97643.75;;;8.69
71960;BMP280;59832;51.146;14.024;2022-12-24T07:45:13;97660.31;;;8.63
71960;BMP280;59832;51.146;14.024;2022-12-24T07:47:40;97648.84;;;8.69
71960;BMP280;59832;51.146;14.024;2022-12-24T07:50:07;97665.91;;;8.72
71960;BMP280;59832;51.146;14.024;2022-12-24T07:52:33;97664.78;;;8.70
71960;BMP280;59832;51.146;14.024;2022-12-24T07:55:00;97666.47;;;8.62
71960;BMP280;59832;51.146;14.024;2022-12-24T07:57:26;97673.84;;;8.71
71960;BMP280;59832;51.146;14.024;2022-12-24T07:59:52;97672.84;;;8.75
71960;BMP280;59832;51.146;14.024;2022-12-24T08:02:19;97668.03;;;8.70
71960;BMP280;59832;51.146;14.024;2022-12-24T08:04:46;97678.53;;;8.69
71960;BMP280;59832;51.146;14.024;2022-12-24T08:07:12;97685.78;;;8.70
71960;BMP280;59832;51.146;14.024;2022-12-24T08:09:39;97686.91;;;8.73
71960;BMP280;59832;51.146;14.024;2022-12-24T08:12:05;97684.69;;;8.68
71960;BMP280;59832;51.146;14.024;2022-12-24T08:14:32;97696.31;;;8.69
71960;BMP280;59832;51.146;14.024;2022-12-24T08:16:58;97701.00;;;8.70
71960;BMP280;59832;51.146;14.024;2022-12-24T08:19:25;97703.03;;;8.61
71960;BMP280;59832;51.146;14.024;2022-12-24T08:21:51;97704.88;;;8.64
71960;BMP280;59832;51.146;14.024;2022-12-24T08:24:17;97704.28;;;8.71
71960;BMP280;59832;51.146;14.024;2022-12-24T08:26:44;97697.78;;;8.70
71960;BMP280;59832;51.146;14.024;2022-12-24T08:29:10;97703.69;;;8.77
71960;BMP280;59832;51.146;14.024;2022-12-24T08:31:37;97706.22;;;8.77
71960;BMP280;59832;51.146;14.024;2022-12-24T08:34:05;97713.84;;;8.77
71960;BMP280;59832;51.146;14.024;2022-12-24T08:36:33;97711.06;;;8.86
71960;BMP280;59832;51.146;14.024;2022-12-24T08:38:59;97716.38;;;8.77
71960;BMP280;59832;51.146;14.024;2022-12-24T08:41:31;97731.13;;;8.72
71960;BMP280;59832;51.146;14.024;2022-12-24T08:43:58;97730.78;;;8.73
71960;BMP280;59832;51.146;14.024;2022-12-24T08:46:24;97731.28;;;8.79
71960;BMP280;59832;51.146;14.024;2022-12-24T08:48:51;97737.00;;;8.76
71960;BMP280;59832;51.146;14.024;2022-12-24T08:51:17;97746.50;;;8.79
71960;BMP280;59832;51.146;14.024;2022-12-24T08:53:44;97742.47;;;8.78
71960;BMP280;59832;51.146;14.024;2022-12-24T08:56:11;97752.22;;;8.76
71960;BMP280;59832;51.146;14.024;2022-12-24T08:58:37;97749.34;;;8.77
71960;BMP280;59832;51.146;14.024;2022-12-24T09:01:12;97759.41;;;8.74
71960;BMP280;59832;51.146;14.024;2022-12-24T09:03:39;97756.88;;;8.74
71960;BMP280;59832;51.146;14.024;2022-12-24T09:06:06;97758.44;;;8.78
71960;BMP280;59832;51.146;14.024;2022-12-24T09:08:33;97764.25;;;8.79
71960;BMP280;59832;51.146;14.024;2022-12-24T09:11:09;97756.63;;;8.79
71960;BMP280;59832;51.146;14.024;2022-12-24T09:13:36;97770.06;;;8.79
71960;BMP280;59832;51.146;14.024;2022-12-24T09:16:03;97768.50;;;8.75
71960;BMP280;59832;51.146;14.024;2022-12-24T09:18:30;97781.31;;;8.82
71960;BMP280;59832;51.146;14.024;2022-12-24T09:21:05;97784.19;;;8.80
71960;BMP280;59832;51.146;14.024;2022-12-24T09:23:37;97799.47;;;8.84
71960;BMP280;59832;51.146;14.024;2022-12-24T09:26:07;97799.38;;;8.77
71960;BMP280;59832;51.146;14.024;2022-12-24T09:28:34;97805.03;;;8.89
71960;BMP280;59832;51.146;14.024;2022-12-24T09:31:02;97790.50;;;8.90
71960;BMP280;59832;51.146;14.024;2022-12-24T09:33:32;97816.63;;;8.90
71960;BMP280;59832;51.146;14.024;2022-12-24T09:35:59;97810.81;;;8.90
71960;BMP280;59832;51.146;14.024;2022-12-24T09:38:26;97814.50;;;8.92
71960;BMP280;59832;51.146;14.024;2022-12-24T09:40:54;97810.25;;;9.00
71960;BMP280;59832;51.146;14.024;2022-12-24T09:43:42;97819.56;;;8.92
71960;BMP280;59832;51.146;14.024;2022-12-24T09:46:29;97817.16;;;8.99
71960;BMP280;59832;51.146;14.024;2022-12-24T09:48:58;97841.47;;;9.00
71960;BMP280;59832;51.146;14.024;2022-12-24T09:51:33;97833.47;;;8.98
71960;BMP280;59832;51.146;14.024;2022-12-24T09:56:52;97835.66;;;9.00
71960;BMP280;59832;51.146;14.024;2022-12-24T09:59:22;97847.97;;;8.98
71960;BMP280;59832;51.146;14.024;2022-12-24T10:01:51;97833.53;;;9.02
71960;BMP280;59832;51.146;14.024;2022-12-24T10:04:19;97835.28;;;8.98
71960;BMP280;59832;51.146;14.024;2022-12-24T10:07:01;97842.72;;;8.91
71960;BMP280;59832;51.146;14.024;2022-12-24T10:09:51;97845.69;;;8.93
71960;BMP280;59832;51.146;14.024;2022-12-24T10:21:11;97846.09;;;8.95
71960;BMP280;59832;51.146;14.024;2022-12-24T10:23:47;97845.88;;;9.03
71960;BMP280;59832;51.146;14.024;2022-12-24T10:26:26;97852.53;;;9.12
71960;BMP280;59832;51.146;14.024;2022-12-24T10:28:59;97851.31;;;9.47
71960;BMP280;59832;51.146;14.024;2022-12-24T10:31:34;97865.63;;;9.82
71960;BMP280;59832;51.146;14.024;2022-12-24T10:34:06;97856.34;;;10.19
71960;BMP280;59832;51.146;14.024;2022-12-24T10:36:37;97859.47;;;10.35
71960;BMP280;59832;51.146;14.024;2022-12-24T10:39:08;97863.59;;;10.47
71960;BMP280;59832;51.146;14.024;2022-12-24T10:41:38;97866.47;;;10.46
71960;BMP280;59832;51.146;14.024;2022-12-24T10:44:05;97883.94;;;10.77
71960;BMP280;59832;51.146;14.024;2022-12-24T10:46:34;97876.38;;;10.84
71960;BMP280;59832;51.146;14.024;2022-12-24T10:49:04;97872.88;;;10.96
71960;BMP280;59832;51.146;14.024;2022-12-24T10:51:51;97870.84;;;11.15
71960;BMP280;59832;51.146;14.024;2022-12-24T10:54:21;97881.19;;;11.33
71960;BMP280;59832;51.146;14.024;2022-12-24T10:57:00;97871.56;;;11.60
71960;BMP280;59832;51.146;14.024;2022-12-24T10:59:30;97875.59;;;11.61
71960;BMP280;59832;51.146;14.024;2022-12-24T11:01:57;97877.91;;;11.83
71960;BMP280;59832;51.146;14.024;2022-12-24T11:04:27;97877.22;;;11.83
71960;BMP280;59832;51.146;14.024;2022-12-24T11:06:57;97882.13;;;12.16
71960;BMP280;59832;51.146;14.024;2022-12-24T11:09:29;97892.22;;;12.02
71960;BMP280;59832;51.146;14.024;2022-12-24T11:11:57;97886.78;;;12.04
71960;BMP280;59832;51.146;14.024;2022-12-24T11:14:35;97897.03;;;12.07
71960;BMP280;59832;51.146;14.024;2022-12-24T11:17:03;97908.97;;;11.96
71960;BMP280;59832;51.146;14.024;2022-12-24T11:19:30;97901.47;;;12.21
71960;BMP280;59832;51.146;14.024;2022-12-24T11:22:03;97908.63;;;12.01
71960;BMP280;59832;51.146;14.024;2022-12-24T11:24:35;97911.69;;;12.24
71960;BMP280;59832;51.146;14.024;2022-12-24T11:27:33;97918.75;;;12.59
71960;BMP280;59832;51.146;14.024;2022-12-24T11:32:38;97921.00;;;12.03
71960;BMP280;59832;51.146;14.024;2022-12-24T11:35:28;97927.13;;;11.44
71960;BMP280;59832;51.146;14.024;2022-12-24T11:40:32;97940.84;;;10.62
71960;BMP280;59832;51.146;14.024;2022-12-24T11:43:00;97944.41;;;10.54
71960;BMP280;59832;51.146;14.024;2022-12-24T11:45:29;97943.50;;;10.42
71960;BMP280;59832;51.146;14.024;2022-12-24T11:47:57;97950.81;;;10.44
71960;BMP280;59832;51.146;14.024;2022-12-24T11:50:33;97953.16;;;10.30
71960;BMP280;59832;51.146;14.024;2022-12-24T11:53:04;97959.63;;;10.24
71960;BMP280;59832;51.146;14.024;2022-12-24T11:55:51;97963.47;;;10.14
71960;BMP280;59832;51.146;14.024;2022-12-24T11:58:20;97961.28;;;10.16
71960;BMP280;59832;51.146;14.024;2022-12-24T12:00:51;97967.53;;;10.19
71960;BMP280;59832;51.146;14.024;2022-12-24T12:03:28;97973.41;;;10.23
71960;BMP280;59832;51.146;14.024;2022-12-24T12:05:59;97974.22;;;10.30
71960;BMP280;59832;51.146;14.024;2022-12-24T12:08:27;97979.22;;;10.23
71960;BMP280;59832;51.146;14.024;2022-12-24T12:10:57;97982.75;;;10.15
71960;BMP280;59832;51.146;14.024;2022-12-24T12:13:29;97975.38;;;10.10
71960;BMP280;59832;51.146;14.024;2022-12-24T12:16:06;97987.47;;;9.94
71960;BMP280;59832;51.146;14.024;2022-12-24T12:18:37;97994.03;;;9.95
71960;BMP280;59832;51.146;14.024;2022-12-24T12:21:18;97991.72;;;9.86
71960;BMP280;59832;51.146;14.024;2022-12-24T12:23:51;97984.88;;;9.90
71960;BMP280;59832;51.146;14.024;2022-12-24T12:26:25;97983.75;;;9.88
71960;BMP280;59832;51.146;14.024;2022-12-24T12:28:58;97979.31;;;9.85
71960;BMP280;59832;51.146;14.024;2022-12-24T12:31:35;97975.50;;;9.94
71960;BMP280;59832;51.146;14.024;2022-12-24T12:34:11;97979.06;;;9.90
71960;BMP280;59832;51.146;14.024;2022-12-24T12:37:25;97982.38;;;9.94
71960;BMP280;59832;51.146;14.024;2022-12-24T12:39:37;97984.81;;;9.87
71960;BMP280;59832;51.146;14.024;2022-12-24T12:42:27;97986.94;;;9.81
71960;BMP280;59832;51.146;14.024;2022-12-24T12:45:21;97984.03;;;9.83
71960;BMP280;59832;51.146;14.024;2022-12-24T12:48:01;97994.41;;;9.74
71960;BMP280;59832;51.146;14.024;2022-12-24T12:50:50;97998.91;;;9.81
71960;BMP280;59832;51.146;14.024;2022-12-24T12:58:48;97998.03;;;9.73
71960;BMP280;59832;51.146;14.024;2022-12-24T13:06:56;98009.59;;;9.71
71960;BMP280;59832;51.146;14.024;2022-12-24T13:09:43;98005.38;;;9.78
71960;BMP280;59832;51.146;14.024;2022-12-24T13:21:15;98023.75;;;9.49
71960;BMP280;59832;51.146;14.024;2022-12-24T13:23:42;98025.88;;;9.47
71960;BMP280;59832;51.146;14.024;2022-12-24T13:26:11;98033.63;;;9.35
71960;BMP280;59832;51.146;14.024;2022-12-24T13:28:38;98028.34;;;9.24
71960;BMP280;59832;51.146;14.024;2022-12-24T13:33:53;98034.59;;;9.11
71960;BMP280;59832;51.146;14.024;2022-12-24T13:36:20;98036.34;;;9.07
71960;BMP280;59832;51.146;14.024;2022-12-24T13:38:56;98035.09;;;9.01
71960;BMP280;59832;51.146;14.024;2022-12-24T13:49:39;98043.47;;;9.01
71960;BMP280;59832;51.146;14.024;2022-12-24T13:54:59;98039.13;;;9.02
71960;BMP280;59832;51.146;14.024;2022-12-24T13:57:59;98047.75;;;8.97
71960;BMP280;59832;51.146;14.024;2022-12-24T14:01:09;98043.31;;;8.94
71960;BMP280;59832;51.146;14.024;2022-12-24T14:03:47;98054.84;;;8.92
71960;BMP280;59832;51.146;14.024;2022-12-24T14:06:29;98047.66;;;8.94
71960;BMP280;59832;51.146;14.024;2022-12-24T14:09:08;98044.81;;;8.95
71960;BMP280;59832;51.146;14.024;2022-12-24T14:14:35;98051.34;;;8.96
71960;BMP280;59832;51.146;14.024;2022-12-24T14:17:13;98060.78;;;8.96
71960;BMP280;59832;51.146;14.024;2022-12-24T14:19:58;98057.91;;;8.97
71960;BMP280;59832;51.146;14.024;2022-12-24T14:22:33;98064.06;;;8.96
71960;BMP280;59832;51.146;14.024;2022-12-24T14:27:40;98074.66;;;9.02
71960;BMP280;59832;51.146;14.024;2022-12-24T14:30:25;98081.88;;;9.00
71960;BMP280;59832;51.146;14.024;2022-12-24T14:32:52;98077.63;;;9.04
71960;BMP280;59832;51.146;14.024;2022-12-24T14:40:20;98080.16;;;9.04
71960;BMP280;59832;51.146;14.024;2022-12-24T14:43:01;98091.69;;;9.01
71960;BMP280;59832;51.146;14.024;2022-12-24T14:46:01;98093.19;;;9.02
71960;BMP280;59832;51.146;14.024;2022-12-24T14:48:52;98096.78;;;9.01
71960;BMP280;59832;51.146;14.024;2022-12-24T14:56:46;98105.38;;;9.13
71960;BMP280;59832;51.146;14.024;2022-12-24T14:59:15;98102.81;;;9.13
71960;BMP280;59832;51.146;14.024;2022-12-24T15:01:41;98108.66;;;9.13
71960;BMP280;59832;51.146;14.024;2022-12-24T15:06:37;98112.53;;;9.07
71960;BMP280;59832;51.146;14.024;2022-12-24T15:09:11;98114.31;;;9.07
71960;BMP280;59832;51.146;14.024;2022-12-24T15:11:43;98120.41;;;9.21
71960;BMP280;59832;51.146;14.024;2022-12-24T15:14:11;98121.94;;;9.07
71960;BMP280;59832;51.146;14.024;2022-12-24T15:16:38;98128.34;;;9.20
71960;BMP280;59832;51.146;14.024;2022-12-24T15:19:12;98123.47;;;9.11
71960;BMP280;59832;51.146;14.024;2022-12-24T15:21:43;98120.84;;;9.07
71960;BMP280;59832;51.146;14.024;2022-12-24T15:24:30;98127.34;;;9.05
71960;BMP280;59832;51.146;14.024;2022-12-24T15:26:59;98125.84;;;9.04
71960;BMP280;59832;51.146;14.024;2022-12-24T15:29:30;98136.81;;;9.08
71960;BMP280;59832;51.146;14.024;2022-12-24T15:32:01;98140.44;;;9.07
71960;BMP280;59832;51.146;14.024;2022-12-24T15:34:40;98166.06;;;9.02
71960;BMP280;59832;51.146;14.024;2022-12-24T15:39:53;98153.28;;;8.67
71960;BMP280;59832;51.146;14.024;2022-12-24T15:42:22;98155.16;;;8.54
71960;BMP280;59832;51.146;14.024;2022-12-24T15:45:02;98161.31;;;8.41
71960;BMP280;59832;51.146;14.024;2022-12-24T15:47:34;98161.31;;;8.26
71960;BMP280;59832;51.146;14.024;2022-12-24T15:50:14;98161.53;;;8.21
71960;BMP280;59832;51.146;14.024;2022-12-24T15:52:42;98172.94;;;8.14
71960;BMP280;59832;51.146;14.024;2022-12-24T15:57:53;98171.28;;;8.06